• Join FlightAware (Why Join?)
  • Login
  • US Flag 
02:40PM EDT


 

Airport Tracker/Info


-or-


 

Live Flight TrackerFlight Track Log ✈ AWE4748 ✈ 20-Feb-2014 ✈ KMHT - KPHL

Flight Track Log - Related Links

Times and Time Zones

All times are in EST time to prevent confusion due to time zone crossing. See the AWE4748 flight status page for this flight to view local times or setup timezone preferences in your user account.

Time Position Orientation Groundspeed Altitude Reporting Facility
EST Latitude Longitude Course Direction KTS MPH feet Rate Location/Type
01:37PM 42.9500 -71.4333 333° Northwest 171 197 1,200  Level KA90
01:38PM 42.9914 -71.4619 333° Northwest 193 222 3,600 3,120 Climbing Boston Center
01:39PM 43.0458 -71.4819 345° North 201 231 7,000 2,940 Climbing Boston Center
01:40PM 43.0978 -71.4458 27° Northeast 258 297 9,600 1,980 Climbing Boston Center
01:41PM 43.0847 -71.3150 98° East 328 377 11,100 1,860 Climbing Boston Center
01:42PM 43.0681 -71.1758 99° East 367 422 13,500 2,160 Climbing Boston Center
01:43PM 43.0767 -71.0361 85° East 376 433 15,500 1,920 Climbing Boston Center
01:44PM 43.0217 -70.9161 122° Southeast 383 441 17,500 1,740 Climbing Boston Center
01:46PM 42.8583 -70.9425 187° South 304 350 21,000 1,440 Climbing Boston Center
01:47PM 42.7739 -70.9844 200° South 321 369 22,000 1,140 Climbing Boston Center
01:48PM 42.6656 -71.0372 200° South 344 396 23,400 1,440 Climbing Boston Center
01:49PM 42.5814 -71.0908 205° Southwest 340 391 25,000 1,260 Climbing Boston Center
01:50PM 42.5081 -71.1594 215° Southwest 325 374 26,000 960 Climbing Boston Center
01:51PM 42.4339 -71.2319 216° Southwest 327 376 27,000 960 Climbing Boston Center
01:52PM 42.3569 -71.3036 215° Southwest 333 383 28,000 480 Climbing Boston Center
01:53PM 42.2811 -71.3803 217° Southwest 340 391 28,000  Level Boston Center
01:54PM 42.1975 -71.4572 214° Southwest 356 410 28,000  Level Boston Center
01:55PM 42.1142 -71.5367 215° Southwest 363 418 28,000  Level Boston Center
01:56PM 42.0319 -71.6136 215° Southwest 362 417 28,000  Level Boston Center
01:57PM 41.9494 -71.6922 215° Southwest 363 418 28,000  Level Boston Center
01:58PM 41.8489 -71.7847 214° Southwest 364 419 28,000  Level Boston Center
01:59PM 41.7667 -71.8617 215° Southwest 361 415 28,000  Level Boston Center
02:00PM 41.6861 -71.9369 215° Southwest 356 410 28,000  Level Boston Center
02:01PM 41.6056 -72.0117 215° Southwest 353 406 28,000  Level Boston Center
02:02PM 41.5239 -72.0867 215° Southwest 353 406 28,000  Level Boston Center
02:03PM 41.4436 -72.1628 215° Southwest 354 407 28,000  Level Boston Center
02:04PM 41.3611 -72.2389 215° Southwest 358 412 28,000  Level Boston Center
02:05PM 41.2769 -72.3142 214° Southwest 364 419 28,000  Level Boston Center
02:06PM 41.1917 -72.3914 214° Southwest 368 423 28,000 -720 Level Boston Center
02:07PM 41.1058 -72.4703 215° Southwest 373 429 26,600 -1,620 Descending Boston Center
02:08PM 41.0036 -72.5642 215° Southwest 372 428 24,800 -1,680 Descending Boston Center
02:09PM 40.9211 -72.6383 214° Southwest 363 418 23,300 -1,500 Descending Boston Center
02:10PM 40.8394 -72.7119 214° Southwest 357 411 21,800 -1,500 Descending Boston Center
02:11PM 40.7608 -72.7847 215° Southwest 349 402 20,300 -900 Descending Boston Center
02:12PM 40.6842 -72.8528 214° Southwest 344 396 20,000 -180 Descending Boston Center
02:14PM 40.6011 -72.9261 214° Southwest 357 411 20,000  Level Boston Center
02:15PM 40.5167 -73.0014 214° Southwest 365 420 20,000  Level Boston Center
02:16PM 40.4311 -73.0778 214° Southwest 370 426 20,000  Level Boston Center
02:16PM 40.3694 -73.1328 214° Southwest 357 411 20,000  Level New York Center
02:17PM 40.2844 -73.2061 213° Southwest 369 425 20,000  Level New York Center
02:18PM 40.1975 -73.2844 215° Southwest 379 436 20,000 -300 Level New York Center
02:19PM 40.1103 -73.3600 214° Southwest 379 436 19,400 -900 Descending New York Center
02:20PM 40.0167 -73.4433 214° Southwest 384 442 18,300 -900 Descending New York Center
02:21PM 39.9275 -73.5211 214° Southwest 384 442 17,600 -900 Descending New York Center
02:22PM 39.8564 -73.6156 226° Southwest 378 435 16,600 -1,020 Descending New York Center
02:23PM 39.7933 -73.7158 231° Southwest 371 427 15,600 -960 Descending New York Center
02:24PM 39.7392 -73.8053 232° Southwest 361 415 14,700 -660 Descending New York Center
02:26PM 39.6456 -73.9492 230° Southwest 346 398 14,000 -300 Descending Boston Center
02:27PM 39.5717 -74.0642 230° Southwest 345 397 14,000  Level Boston Center
02:28PM 39.5250 -74.1719 241° Southwest 352 405 14,000 -240 Level Boston Center
02:29PM 39.5264 -74.2969 271° West 351 404 13,600 -1,020 Descending Boston Center
02:30PM 39.5294 -74.4219 272° West 347 399 12,000 -1,500 Descending Boston Center
02:31PM 39.5311 -74.5456 271° West 345 397 10,600 -1,080 Descending Boston Center
02:32PM 39.5333 -74.6500 272° West 259 298 9,900 -840 Descending Philadelphia TRACON
02:33PM 39.5333 -74.7333 270° West 247 284 9,000 -1,500 Descending Philadelphia TRACON
02:34PM 39.5333 -74.8333 270° West 239 275 6,900 -1,500 Descending Philadelphia TRACON
02:35PM 39.5333 -74.9167 270° West 238 274 6,000 -480 Descending Philadelphia TRACON
02:36PM 39.5333 -75.0000 270° West 245 282 6,000 -180 Level Philadelphia TRACON
02:37PM 39.5833 -75.0667 314° West 277 319 5,700 -480 Descending Philadelphia TRACON
02:38PM 39.6500 -75.1000 339° North 190 219 5,100 -1,020 Descending Philadelphia TRACON
02:39PM 39.7000 -75.1333 333° Northwest 183 211 3,700 -1,140 Descending Philadelphia TRACON
02:40PM 39.7500 -75.1667 333° Northwest 206 237 2,900 -960 Descending Philadelphia TRACON
02:41PM 39.8000 -75.1833 346° North 201 231 1,800 -1,020 Descending Philadelphia TRACON
02:42PM 39.8333 -75.2167 322° Northwest 154 177 900 -420 Descending Philadelphia TRACON
02:43PM 39.8833 -75.2333 346° North 161 185 1,000 960 Climbing Philadelphia TRACON
02:44PM 39.9333 -75.2667 333° Northwest 234 269 3,000 960 Climbing Philadelphia TRACON
02:45PM 39.9833 -75.2667 360° North 221 254 3,000  Level Philadelphia TRACON
02:46PM 40.0000 -75.1833 75° East 205 236 3,000  Level Philadelphia TRACON
02:47PM 40.0167 -75.1167 72° East 203 234 3,000  Level Philadelphia TRACON
02:48PM 40.0333 -75.0500 72° East 195 224 3,000  Level Philadelphia TRACON
02:49PM 39.9833 -75.0500 180° South 173 199 3,000 -300 Level Philadelphia TRACON
02:50PM 39.9333 -75.0833 207° Southwest 184 212 2,500 -780 Descending Philadelphia TRACON
02:51PM 39.9000 -75.1333 229° Southwest 173 199 1,400 -960 Descending Philadelphia TRACON
02:52PM 39.8833 -75.1833 247° West 136 157 700 -900 Descending Philadelphia TRACON